Time;durP1;ratioP1;P1;durP2;ratioP2;P2;SDS_P1;SDS_P2;PMS_P1;PMS_P2;Temp;Humidity;BMP_temperature;BMP_pressure;BME280_temperature;BME280_humidity;BME280_pressure;Samples;Min_cycle;Max_cycle;Signal;HPM_P1;HPM_P2
2024/03/03 00:00:57;;;;;;;23.40;7.55;;;;;;;;;;10515374;28;20041;-74
2024/03/03 00:06:08;;;;;;;36.67;11.60;;;;;;;;;;10485985;28;20546;-74
2024/03/03 00:11:15;;;;;;;35.83;11.25;;;;;;;;;;10516342;28;20067;-75
2024/03/03 00:16:22;;;;;;;38.47;11.93;;;;;;;;;;10498721;28;20524;-74
2024/03/03 00:21:31;;;;;;;36.72;10.75;;;;;;;;;;10502814;28;20048;-75
2024/03/03 00:26:34;;;;;;;38.13;12.48;;;;;;;;;;10520351;28;20440;-77
2024/03/03 00:31:45;;;;;;;40.60;12.48;;;;;;;;;;10480446;28;20047;-73
2024/03/03 00:36:51;;;;;;;23.35;7.97;;;;;;;;;;10512583;28;20094;-74
2024/03/03 00:41:58;;;;;;;35.50;11.52;;;;;;;;;;10497185;28;20032;-74
2024/03/03 00:47:09;;;;;;;37.92;11.85;;;;;;;;;;10511599;28;20051;-74
2024/03/03 00:52:18;;;;;;;42.28;12.48;;;;;;;;;;10509596;28;20048;-74
2024/03/03 00:57:30;;;;;;;38.90;12.87;;;;;;;;;;10515557;28;20557;-75
2024/03/03 01:02:38;;;;;;;32.83;11.00;;;;;;;;;;10496917;28;20032;-74
2024/03/03 01:07:45;;;;;;;33.55;11.10;;;;;;;;;;10500838;28;20508;-75
2024/03/03 01:18:10;;;;;;;38.80;10.65;;;;;;;;;;10503959;28;20056;-74
2024/03/03 01:23:19;;;;;;;35.97;11.50;;;;;;;;;;10516361;28;20052;-75
2024/03/03 01:28:26;;;;;;;17.52;6.38;;;;;;;;;;10512133;28;20037;-75
2024/03/03 01:33:31;;;;;;;38.05;10.18;;;;;;;;;;10520885;28;20054;-74
2024/03/03 01:38:52;;;;;;;29.77;10.23;;;;;;;;;;10519961;28;20147;-74
2024/03/03 01:43:58;;;;;;;23.30;6.90;;;;;;;;;;10494401;28;20128;-74
2024/03/03 01:49:03;;;;;;;;;;;;;;;;;;10492656;28;20379;-74
2024/03/03 01:54:12;;;;;;;25.00;8.85;;;;;;;;;;10478995;28;20381;-75
2024/03/03 01:59:17;;;;;;;29.70;10.32;;;;;;;;;;10516816;28;20131;-75
2024/03/03 02:04:25;;;;;;;30.50;9.45;;;;;;;;;;10493477;28;20097;-75
2024/03/03 02:09:32;;;;;;;23.70;8.55;;;;;;;;;;10514325;28;20036;-75
2024/03/03 02:14:37;;;;;;;27.35;8.80;;;;;;;;;;10494931;28;20451;-72
2024/03/03 02:19:44;;;;;;;28.52;10.10;;;;;;;;;;10486518;28;20045;-74
2024/03/03 02:24:50;;;;;;;31.40;9.52;;;;;;;;;;10513296;28;20039;-73
2024/03/03 02:29:58;;;;;;;29.98;8.63;;;;;;;;;;10504284;28;20089;-74
2024/03/03 02:35:15;;;;;;;22.13;8.30;;;;;;;;;;10473923;28;20033;-76
2024/03/03 02:40:36;;;;;;;24.60;8.45;;;;;;;;;;10507394;28;20115;-73
2024/03/03 02:45:43;;;;;;;22.50;7.47;;;;;;;;;;10508501;28;20047;-74
2024/03/03 02:50:48;;;;;;;25.58;8.52;;;;;;;;;;10499671;28;20040;-74
2024/03/03 02:55:56;;;;;;;19.42;6.35;;;;;;;;;;10515999;28;20040;-74
2024/03/03 03:01:02;;;;;;;25.50;8.35;;;;;;;;;;10513814;28;20469;-74
2024/03/03 03:06:12;;;;;;;21.35;7.53;;;;;;;;;;10520345;28;20111;-74
2024/03/03 03:11:29;;;;;;;20.00;7.03;;;;;;;;;;10489111;28;20082;-74
2024/03/03 03:16:33;;;;;;;19.25;6.78;;;;;;;;;;10513978;28;20643;-74
2024/03/03 03:21:38;;;;;;;21.60;7.22;;;;;;;;;;10504408;28;22196;-72
2024/03/03 03:26:45;;;;;;;18.60;6.55;;;;;;;;;;10516433;28;20048;-74
2024/03/03 03:32:01;;;;;;;22.33;7.57;;;;;;;;;;10503812;28;20115;-76
2024/03/03 03:37:07;;;;;;;20.90;6.97;;;;;;;;;;10493739;28;20458;-75
2024/03/03 03:42:23;;;;;;;19.95;7.15;;;;;;;;;;10500100;28;20481;-75
2024/03/03 03:47:28;;;;;;;22.13;7.63;;;;;;;;;;10511431;28;20135;-74
2024/03/03 03:52:33;;;;;;;26.38;7.65;;;;;;;;;;10516071;28;20442;-74
2024/03/03 03:57:48;;;;;;;20.80;7.07;;;;;;;;;;10503771;28;20166;-75
2024/03/03 04:03:23;;;;;;;23.00;7.70;;;;;;;;;;10518222;28;20048;-75
2024/03/03 04:08:30;;;;;;;26.25;6.72;;;;;;;;;;10518719;28;20048;-75
2024/03/03 04:13:38;;;;;;;20.65;7.20;;;;;;;;;;10492907;28;20482;-74
2024/03/03 04:18:46;;;;;;;17.65;5.55;;;;;;;;;;10519654;28;20066;-74
2024/03/03 04:23:52;;;;;;;19.35;7.03;;;;;;;;;;10518245;28;20076;-74
2024/03/03 04:29:10;;;;;;;15.63;5.93;;;;;;;;;;10520083;28;20066;-74
2024/03/03 04:34:14;;;;;;;19.17;6.50;;;;;;;;;;10509008;28;20158;-74
2024/03/03 04:39:25;;;;;;;23.50;8.15;;;;;;;;;;10514498;28;20181;-73
2024/03/03 04:44:42;;;;;;;22.63;7.45;;;;;;;;;;10520488;28;20055;-73
2024/03/03 04:49:49;;;;;;;21.95;6.25;;;;;;;;;;10514544;28;20028;-74
2024/03/03 04:54:54;;;;;;;18.50;6.93;;;;;;;;;;10499516;28;20052;-75
2024/03/03 05:00:07;;;;;;;20.13;6.05;;;;;;;;;;10516826;28;20036;-74
2024/03/03 05:05:17;;;;;;;17.25;6.18;;;;;;;;;;10511367;28;20063;-75
2024/03/03 05:10:33;;;;;;;16.67;5.88;;;;;;;;;;10528190;28;20598;-74
2024/03/03 05:15:38;;;;;;;14.82;5.82;;;;;;;;;;10528836;28;20086;-74
2024/03/03 05:20:50;;;;;;;21.83;6.60;;;;;;;;;;10520590;28;20163;-74
2024/03/03 05:25:55;;;;;;;16.70;5.32;;;;;;;;;;10520775;28;20135;-74
2024/03/03 05:31:05;;;;;;;18.55;5.97;;;;;;;;;;10499474;28;20028;-75
2024/03/03 05:36:12;;;;;;;19.17;5.60;;;;;;;;;;10509994;28;20036;-73
2024/03/03 05:41:25;;;;;;;19.20;5.70;;;;;;;;;;10522655;28;20089;-74
2024/03/03 05:46:33;;;;;;;17.33;4.95;;;;;;;;;;10521472;28;20093;-74
2024/03/03 05:51:43;;;;;;;17.95;5.95;;;;;;;;;;10509227;28;20066;-74
2024/03/03 05:56:51;;;;;;;12.10;4.88;;;;;;;;;;10509772;28;20048;-75
2024/03/03 06:02:01;;;;;;;16.25;5.57;;;;;;;;;;10475099;28;20052;-73
2024/03/03 06:07:06;;;;;;;15.68;5.68;;;;;;;;;;10495204;28;20143;-74
2024/03/03 06:12:13;;;;;;;14.80;5.35;;;;;;;;;;10493733;28;20356;-75
2024/03/03 06:17:20;;;;;;;15.05;4.93;;;;;;;;;;10495405;28;20047;-74
2024/03/03 06:22:28;;;;;;;11.40;4.50;;;;;;;;;;10490967;28;20127;-76
2024/03/03 06:27:34;;;;;;;13.27;5.13;;;;;;;;;;10510296;28;20036;-73
2024/03/03 06:32:41;;;;;;;9.18;3.67;;;;;;;;;;10474181;28;20424;-74
2024/03/03 06:37:46;;;;;;;20.33;4.00;;;;;;;;;;10519364;28;20128;-73
2024/03/03 06:42:51;;;;;;;12.70;4.97;;;;;;;;;;10491125;28;20044;-74
2024/03/03 06:48:02;;;;;;;13.05;5.03;;;;;;;;;;10493251;28;20130;-74
2024/03/03 06:53:08;;;;;;;9.95;4.00;;;;;;;;;;10507995;28;20131;-74
2024/03/03 06:58:12;;;;;;;12.48;4.43;;;;;;;;;;10485931;28;20096;-74
2024/03/03 07:03:53;;;;;;;9.35;3.88;;;;;;;;;;10492474;28;20109;-73
2024/03/03 07:08:56;;;;;;;8.38;4.00;;;;;;;;;;10520409;28;20071;-75
2024/03/03 07:14:01;;;;;;;12.18;4.00;;;;;;;;;;10512491;28;20039;-76
2024/03/03 07:19:16;;;;;;;9.15;4.10;;;;;;;;;;10493115;28;20099;-74
2024/03/03 07:24:27;;;;;;;8.80;4.07;;;;;;;;;;10500071;28;20151;-75
2024/03/03 07:29:31;;;;;;;8.75;3.90;;;;;;;;;;10517425;28;20068;-75
2024/03/03 07:34:38;;;;;;;6.00;3.40;;;;;;;;;;10516464;28;20059;-73
2024/03/03 07:39:50;;;;;;;5.80;3.65;;;;;;;;;;10510786;28;20044;-75
2024/03/03 07:44:55;;;;;;;7.35;3.45;;;;;;;;;;10530112;28;20452;-75
2024/03/03 07:50:04;;;;;;;5.97;3.50;;;;;;;;;;10490288;28;20071;-75
2024/03/03 07:55:27;;;;;;;4.18;2.53;;;;;;;;;;10526207;28;20155;-75
2024/03/03 08:00:36;;;;;;;3.20;2.17;;;;;;;;;;10502756;28;20052;-75
2024/03/03 08:05:47;;;;;;;4.70;3.10;;;;;;;;;;10518941;28;20125;-75
2024/03/03 08:10:52;;;;;;;4.93;2.70;;;;;;;;;;10506431;28;20519;-75
2024/03/03 08:15:59;;;;;;;7.07;3.20;;;;;;;;;;10490071;28;20098;-74
2024/03/03 08:21:08;;;;;;;3.40;2.08;;;;;;;;;;10511916;28;20528;-74
2024/03/03 08:26:13;;;;;;;3.88;1.92;;;;;;;;;;10506337;28;20145;-75
2024/03/03 08:31:21;;;;;;;2.60;1.50;;;;;;;;;;10476022;28;20975;-74
2024/03/03 08:36:30;;;;;;;3.17;2.20;;;;;;;;;;10505466;28;20123;-75
2024/03/03 08:41:47;;;;;;;5.45;2.50;;;;;;;;;;10503873;28;20032;-76
2024/03/03 08:46:59;;;;;;;3.15;2.40;;;;;;;;;;10512205;28;20138;-74
2024/03/03 08:52:14;;;;;;;3.88;2.00;;;;;;;;;;10510006;28;20067;-75
2024/03/03 08:57:21;;;;;;;2.20;1.30;;;;;;;;;;10502968;28;20557;-74
2024/03/03 09:02:28;;;;;;;3.60;1.38;;;;;;;;;;10519152;28;20048;-75
2024/03/03 09:07:39;;;;;;;2.10;1.00;;;;;;;;;;10511950;28;20066;-74
2024/03/03 09:18:05;;;;;;;3.08;1.25;;;;;;;;;;10517392;28;20200;-75
2024/03/03 09:23:10;;;;;;;1.30;1.02;;;;;;;;;;10494724;28;20039;-76
2024/03/03 09:28:18;;;;;;;0.57;0.57;;;;;;;;;;10513741;28;20048;-75
2024/03/03 09:33:21;;;;;;;0.80;0.50;;;;;;;;;;10514770;28;20040;-74
2024/03/03 09:38:29;;;;;;;1.60;0.70;;;;;;;;;;10510940;28;20048;-74
2024/03/03 09:43:37;;;;;;;0.88;0.60;;;;;;;;;;10497687;28;20430;-74
2024/03/03 09:48:42;;;;;;;1.20;0.57;;;;;;;;;;10510815;28;20097;-74
2024/03/03 09:53:48;;;;;;;1.33;0.57;;;;;;;;;;10508263;28;20109;-74
2024/03/03 09:59:04;;;;;;;2.13;0.73;;;;;;;;;;10491319;28;20510;-75
2024/03/03 10:04:14;;;;;;;1.23;0.52;;;;;;;;;;10522923;28;20060;-75
2024/03/03 10:09:49;;;;;;;1.15;0.70;;;;;;;;;;10493374;28;20054;-74
2024/03/03 10:14:52;;;;;;;1.33;0.60;;;;;;;;;;10501448;28;20116;-73
2024/03/03 10:20:05;;;;;;;2.92;0.40;;;;;;;;;;10494390;28;20047;-74
2024/03/03 10:25:18;;;;;;;1.45;0.65;;;;;;;;;;10517348;28;20054;-75
2024/03/03 10:30:27;;;;;;;1.25;0.80;;;;;;;;;;10493970;28;20131;-75
2024/03/03 10:35:31;;;;;;;0.82;0.60;;;;;;;;;;10505630;28;20036;-75
2024/03/03 10:40:41;;;;;;;2.80;0.93;;;;;;;;;;10479113;28;20140;-75
2024/03/03 10:45:48;;;;;;;1.50;0.90;;;;;;;;;;10490677;28;20040;-74
2024/03/03 10:51:13;;;;;;;0.82;0.80;;;;;;;;;;10498506;28;20047;-74
2024/03/03 10:56:22;;;;;;;1.02;0.70;;;;;;;;;;10491291;28;20048;-75
2024/03/03 11:01:27;;;;;;;1.67;0.80;;;;;;;;;;10508995;28;20047;-74
2024/03/03 11:06:38;;;;;;;2.08;0.90;;;;;;;;;;10511268;28;20116;-74
2024/03/03 11:11:44;;;;;;;;;;;;;;;;;;10511561;28;20040;-74
2024/03/03 11:17:04;;;;;;;1.95;1.30;;;;;;;;;;10504297;28;19920;-74
2024/03/03 11:22:13;;;;;;;2.08;1.35;;;;;;;;;;10510196;28;20036;-75
2024/03/03 11:27:26;;;;;;;2.42;1.83;;;;;;;;;;10517687;28;20036;-74
2024/03/03 11:32:33;;;;;;;2.40;1.90;;;;;;;;;;10489494;28;20048;-75
2024/03/03 11:37:38;;;;;;;2.13;1.50;;;;;;;;;;10515753;28;20546;-76
2024/03/03 11:42:47;;;;;;;2.40;1.08;;;;;;;;;;10520484;28;20087;-74
2024/03/03 11:47:55;;;;;;;1.73;1.40;;;;;;;;;;10528754;28;20048;-76
2024/03/03 11:53:01;;;;;;;2.70;1.50;;;;;;;;;;10520980;28;20048;-75
2024/03/03 11:58:06;;;;;;;1.52;1.42;;;;;;;;;;10500411;28;20044;-75
2024/03/03 12:03:14;;;;;;;3.53;1.40;;;;;;;;;;10517836;28;20044;-75
2024/03/03 12:08:21;;;;;;;1.60;1.50;;;;;;;;;;10499752;28;20048;-75
2024/03/03 12:13:28;;;;;;;2.25;1.50;;;;;;;;;;10500899;28;20040;-76
2024/03/03 12:18:38;;;;;;;2.22;1.10;;;;;;;;;;10507601;28;20402;-76
2024/03/03 12:23:52;;;;;;;2.65;1.10;;;;;;;;;;10507373;28;20065;-75
2024/03/03 12:29:00;;;;;;;1.38;1.27;;;;;;;;;;10516429;28;20047;-75
2024/03/03 12:34:11;;;;;;;1.70;1.20;;;;;;;;;;10513507;28;20058;-75
2024/03/03 12:39:18;;;;;;;2.38;1.42;;;;;;;;;;10496419;28;20070;-75
2024/03/03 12:44:23;;;;;;;4.22;1.95;;;;;;;;;;10505857;28;20048;-75
2024/03/03 12:49:35;;;;;;;3.47;1.38;;;;;;;;;;10517490;28;20060;-76
2024/03/03 12:54:42;;;;;;;1.88;1.23;;;;;;;;;;10511810;28;20058;-76
2024/03/03 12:59:51;;;;;;;2.05;1.10;;;;;;;;;;10475655;28;20044;-75
2024/03/03 13:04:59;;;;;;;2.38;2.00;;;;;;;;;;10504032;28;20155;-75
2024/03/03 13:10:16;;;;;;;4.53;2.63;;;;;;;;;;10506912;28;20342;-75
2024/03/03 13:15:29;;;;;;;2.72;1.85;;;;;;;;;;10511673;28;21569;-76
2024/03/03 13:20:49;;;;;;;1.98;1.30;;;;;;;;;;10515293;28;20045;-76
2024/03/03 13:25:56;;;;;;;1.92;1.40;;;;;;;;;;10506364;28;20050;-76
2024/03/03 13:31:00;;;;;;;1.55;1.35;;;;;;;;;;10510899;28;20399;-75
2024/03/03 13:36:09;;;;;;;2.97;1.77;;;;;;;;;;10506401;28;20039;-76
2024/03/03 13:41:14;;;;;;;3.28;1.30;;;;;;;;;;10513414;28;20174;-75
2024/03/03 13:46:26;;;;;;;1.63;1.10;;;;;;;;;;10492596;28;20177;-75
2024/03/03 13:51:31;;;;;;;1.85;1.13;;;;;;;;;;10520901;28;20606;-75
2024/03/03 13:56:38;;;;;;;1.20;1.10;;;;;;;;;;10510724;28;20045;-75
2024/03/03 14:01:48;;;;;;;1.00;1.00;;;;;;;;;;10518554;28;20051;-77
2024/03/03 14:06:54;;;;;;;2.05;1.00;;;;;;;;;;10514636;28;20051;-76
2024/03/03 14:12:00;;;;;;;2.17;1.30;;;;;;;;;;10520551;28;20062;-74
2024/03/03 14:17:06;;;;;;;1.90;1.05;;;;;;;;;;10503566;28;20080;-76
2024/03/03 14:22:14;;;;;;;1.90;1.10;;;;;;;;;;10509659;28;20416;-77
2024/03/03 14:27:18;;;;;;;1.23;1.00;;;;;;;;;;10501685;28;20520;-76
2024/03/03 14:32:24;;;;;;;1.60;0.80;;;;;;;;;;10508515;28;20104;-76
2024/03/03 14:37:30;;;;;;;1.08;0.60;;;;;;;;;;10507745;28;20425;-76
2024/03/03 14:42:34;;;;;;;1.98;0.88;;;;;;;;;;10503858;28;20079;-75
2024/03/03 14:47:43;;;;;;;1.08;0.80;;;;;;;;;;10512491;28;20055;-76
2024/03/03 14:52:52;;;;;;;0.75;0.60;;;;;;;;;;10514295;28;20055;-76
2024/03/03 14:57:58;;;;;;;0.50;0.50;;;;;;;;;;10492337;28;20049;-73
2024/03/03 15:03:05;;;;;;;1.33;1.00;;;;;;;;;;10511871;28;20036;-75
2024/03/03 15:08:18;;;;;;;1.77;0.75;;;;;;;;;;10489779;28;20043;-76
2024/03/03 15:13:29;;;;;;;1.05;0.57;;;;;;;;;;10512329;28;20057;-75
2024/03/03 15:18:34;;;;;;;1.15;0.60;;;;;;;;;;10487465;28;20045;-75
2024/03/03 15:23:43;;;;;;;0.65;0.43;;;;;;;;;;10461435;28;20471;-76
2024/03/03 15:28:51;;;;;;;2.00;0.70;;;;;;;;;;10492644;28;20048;-75
2024/03/03 15:33:57;;;;;;;2.78;0.80;;;;;;;;;;10505073;28;20391;-75
2024/03/03 15:39:12;;;;;;;0.77;0.60;;;;;;;;;;10491416;28;20044;-75
2024/03/03 15:44:16;;;;;;;6.63;2.35;;;;;;;;;;10489073;28;20056;-74
2024/03/03 15:49:24;;;;;;;0.50;0.50;;;;;;;;;;10512217;28;20114;-75
2024/03/03 15:54:31;;;;;;;3.05;0.50;;;;;;;;;;10513480;28;20040;-76
2024/03/03 15:59:38;;;;;;;0.70;0.60;;;;;;;;;;10479131;28;20560;-76
2024/03/03 16:04:51;;;;;;;1.00;0.73;;;;;;;;;;10512540;28;20060;-75
2024/03/03 16:09:56;;;;;;;1.90;0.75;;;;;;;;;;10494087;28;20399;-74
2024/03/03 16:15:00;;;;;;;3.03;1.17;;;;;;;;;;10506369;28;20055;-75
2024/03/03 16:20:08;;;;;;;1.02;0.88;;;;;;;;;;10519915;28;20055;-75
2024/03/03 16:25:26;;;;;;;1.50;0.77;;;;;;;;;;10516623;28;20693;-74
2024/03/03 16:30:34;;;;;;;1.38;0.80;;;;;;;;;;10514392;28;20047;-75
2024/03/03 16:35:44;;;;;;;1.95;0.60;;;;;;;;;;10503176;28;20080;-74
2024/03/03 16:46:09;;;;;;;1.35;0.80;;;;;;;;;;10510078;28;20055;-75
2024/03/03 16:51:17;;;;;;;1.15;0.40;;;;;;;;;;10516734;28;20110;-74
2024/03/03 16:56:22;;;;;;;1.20;0.65;;;;;;;;;;10484517;28;20052;-75
2024/03/03 17:01:28;;;;;;;0.50;0.50;;;;;;;;;;10494291;28;20056;-76
2024/03/03 17:06:38;;;;;;;1.85;1.45;;;;;;;;;;10507116;28;20435;-76
2024/03/03 17:11:44;;;;;;;1.65;0.88;;;;;;;;;;10493926;28;20048;-74
2024/03/03 17:16:52;;;;;;;2.15;0.85;;;;;;;;;;10509818;28;20683;-75
2024/03/03 17:21:59;;;;;;;2.00;0.80;;;;;;;;;;10515898;28;20063;-75
2024/03/03 17:27:10;;;;;;;3.85;1.70;;;;;;;;;;10506253;28;20045;-75
2024/03/03 17:32:19;;;;;;;0.85;0.60;;;;;;;;;;10504569;28;20123;-75
2024/03/03 17:37:26;;;;;;;3.72;1.48;;;;;;;;;;10515551;28;20044;-75
2024/03/03 17:42:33;;;;;;;4.32;1.23;;;;;;;;;;10509604;28;20055;-76
2024/03/03 17:47:42;;;;;;;4.85;1.70;;;;;;;;;;10477509;28;20071;-76
2024/03/03 17:52:54;;;;;;;6.43;2.40;;;;;;;;;;10506539;28;20195;-76
2024/03/03 17:58:06;;;;;;;20.20;8.27;;;;;;;;;;10517733;28;20041;-76
2024/03/03 18:03:12;;;;;;;5.07;1.95;;;;;;;;;;10498837;28;20054;-74
2024/03/03 18:08:21;;;;;;;4.13;2.25;;;;;;;;;;10500829;28;20067;-73
2024/03/03 18:13:37;;;;;;;4.00;1.60;;;;;;;;;;10499488;28;20040;-74
2024/03/03 18:18:50;;;;;;;5.43;1.48;;;;;;;;;;10486398;28;20052;-75
2024/03/03 18:24:00;;;;;;;4.60;2.08;;;;;;;;;;10510483;28;21104;-77
2024/03/03 18:29:10;;;;;;;5.00;2.30;;;;;;;;;;10491645;28;20033;-76
2024/03/03 18:34:13;;;;;;;6.75;2.95;;;;;;;;;;10506201;28;20056;-76
2024/03/03 18:39:38;;;;;;;4.50;2.10;;;;;;;;;;10492589;28;20036;-76
2024/03/03 18:44:58;;;;;;;3.72;1.42;;;;;;;;;;10492494;28;20044;-76
2024/03/03 18:50:20;;;;;;;2.45;1.23;;;;;;;;;;10505439;28;20052;-76
2024/03/03 18:55:31;;;;;;;4.15;1.52;;;;;;;;;;10498656;28;20055;-76
2024/03/03 19:00:37;;;;;;;4.97;1.40;;;;;;;;;;10506942;28;20379;-76
2024/03/03 19:11:14;;;;;;;1.90;1.42;;;;;;;;;;10500235;27;20476;-76
2024/03/03 19:16:16;;;;;;;3.50;1.83;;;;;;;;;;10509151;28;20032;-76
2024/03/03 19:21:19;;;;;;;17.58;8.60;;;;;;;;;;10501868;28;20080;-75
2024/03/03 19:26:23;;;;;;;14.93;6.30;;;;;;;;;;10502646;28;20096;-74
2024/03/03 19:31:26;;;;;;;3.63;2.22;;;;;;;;;;10497820;28;20117;-75
2024/03/03 19:36:28;;;;;;;5.55;1.90;;;;;;;;;;10497356;28;20094;-76
2024/03/03 19:41:32;;;;;;;4.30;1.55;;;;;;;;;;10501576;28;20040;-76
2024/03/03 19:46:35;;;;;;;;;;;;;;;;;;10496352;28;20056;-76
2024/03/03 19:51:38;;;;;;;6.55;2.13;;;;;;;;;;10501170;28;19982;-76
2024/03/03 19:56:42;;;;;;;6.32;2.28;;;;;;;;;;10506872;28;20111;-75
2024/03/03 20:01:45;;;;;;;4.88;1.88;;;;;;;;;;10496303;28;20044;-76
2024/03/03 20:06:49;;;;;;;4.68;3.05;;;;;;;;;;10481332;28;20475;-75
2024/03/03 20:11:53;;;;;;;2.03;1.42;;;;;;;;;;10507026;28;20048;-75
2024/03/03 20:16:56;;;;;;;;;;;;;;;;;;10505437;28;20061;-74
2024/03/03 20:21:58;;;;;;;5.82;2.75;;;;;;;;;;10472688;28;19978;-75
2024/03/03 20:27:03;;;;;;;9.82;4.38;;;;;;;;;;10474699;28;20053;-75
2024/03/03 20:32:08;;;;;;;2.30;1.60;;;;;;;;;;10464040;28;20841;-76
2024/03/03 20:37:11;;;;;;;2.13;1.17;;;;;;;;;;10465135;28;20051;-75
2024/03/03 20:42:15;;;;;;;5.50;1.83;;;;;;;;;;10456196;28;20511;-75
2024/03/03 20:47:19;;;;;;;3.38;1.77;;;;;;;;;;10471008;28;20106;-75
2024/03/03 20:52:24;;;;;;;3.05;1.85;;;;;;;;;;10457951;28;20037;-75
2024/03/03 20:57:29;;;;;;;4.95;1.80;;;;;;;;;;10467419;28;20413;-76
2024/03/03 21:02:32;;;;;;;4.28;1.90;;;;;;;;;;10467651;28;20036;-76
2024/03/03 21:07:35;;;;;;;3.65;1.52;;;;;;;;;;10465884;28;20037;-74
2024/03/03 21:12:41;;;;;;;4.80;1.90;;;;;;;;;;10464710;28;20040;-75
2024/03/03 21:17:44;;;;;;;2.15;1.08;;;;;;;;;;10473283;28;20498;-75
2024/03/03 21:22:48;;;;;;;4.15;1.95;;;;;;;;;;10462617;28;20566;-75
2024/03/03 21:27:52;;;;;;;5.40;2.00;;;;;;;;;;10473300;28;20478;-75
2024/03/03 21:32:55;;;;;;;;;;;;;;;;;;10464086;28;20049;-76
2024/03/03 21:37:58;;;;;;;3.25;1.58;;;;;;;;;;10465631;28;20530;-75
2024/03/03 21:43:02;;;;;;;17.23;1.48;;;;;;;;;;10460213;28;20044;-74
2024/03/03 21:48:05;;;;;;;2.25;1.30;;;;;;;;;;10464882;28;20127;-75
2024/03/03 21:53:08;;;;;;;1.80;1.10;;;;;;;;;;10461891;28;20045;-73
2024/03/03 21:58:12;;;;;;;3.22;1.98;;;;;;;;;;10464213;28;20044;-73
2024/03/03 22:03:15;;;;;;;4.35;1.80;;;;;;;;;;10465378;28;20049;-75
2024/03/03 22:08:19;;;;;;;1.27;0.95;;;;;;;;;;10460364;28;20486;-75
2024/03/03 22:13:23;;;;;;;3.00;0.47;;;;;;;;;;10472503;28;20679;-75
2024/03/03 22:18:25;;;;;;;;;;;;;;;;;;10461182;28;20059;-74
2024/03/03 22:23:29;;;;;;;2.88;1.30;;;;;;;;;;10460899;28;20020;-75
2024/03/03 22:28:33;;;;;;;2.88;0.85;;;;;;;;;;10466748;28;20547;-76
2024/03/03 22:33:37;;;;;;;1.92;0.82;;;;;;;;;;10463939;28;20063;-77
2024/03/03 22:38:40;;;;;;;3.33;0.90;;;;;;;;;;10463446;28;20336;-77
2024/03/03 22:43:44;;;;;;;3.97;1.27;;;;;;;;;;10466231;28;20329;-76
2024/03/03 22:48:47;;;;;;;2.28;1.00;;;;;;;;;;10463975;28;20044;-76
2024/03/03 22:53:50;;;;;;;2.75;0.73;;;;;;;;;;10460412;28;20045;-76
2024/03/03 22:58:55;;;;;;;1.88;0.70;;;;;;;;;;10466481;28;20126;-73
2024/03/03 23:03:57;;;;;;;4.53;1.20;;;;;;;;;;10464894;28;20049;-74
2024/03/03 23:09:00;;;;;;;1.73;1.00;;;;;;;;;;10459711;28;20554;-74
2024/03/03 23:14:04;;;;;;;2.78;1.27;;;;;;;;;;10458373;28;21513;-74
2024/03/03 23:19:10;;;;;;;3.58;1.50;;;;;;;;;;10465111;28;20110;-75
2024/03/03 23:24:13;;;;;;;3.67;1.20;;;;;;;;;;10469078;28;20102;-75
2024/03/03 23:29:17;;;;;;;1.80;1.00;;;;;;;;;;10462262;28;20058;-75
2024/03/03 23:34:19;;;;;;;;;;;;;;;;;;10472815;28;20048;-77
2024/03/03 23:39:22;;;;;;;2.80;1.15;;;;;;;;;;10468302;28;19921;-76
2024/03/03 23:44:27;;;;;;;2.15;1.10;;;;;;;;;;10459459;28;20535;-75
2024/03/03 23:49:29;;;;;;;;;;;;;;;;;;10466850;28;20409;-75
2024/03/03 23:54:34;;;;;;;3.35;1.35;;;;;;;;;;10467227;28;20015;-74
2024/03/03 23:59:39;;;;;;;2.53;1.30;;;;;;;;;;10466132;28;20033;-74
